OLBO2: North Canadian River

Data processed at Wed May 22 2019 23:50


All information presented herein is the property of the government of the United States of America and may be revised or deleted at any time without prior notice.
Dissemination of this information without the expressed written consent of the Public Affairs Office, Tulsa District U.S. Army Corps of Engineers is strictly prohibited.
These data are gathered electronically and, as presented, have not undergone any form of quality control. These data are not guaranteed to be valid or correct.
Go to home page.
Go to station list.
Go to home page.

Upstream stations:

Downstream station:
Previous Day
Next Day
Current Day
    
SHEF ID:       OLBO2     North Canadian River blw Lk Over
STATION TYPE:  
Regulating: Stage =    24.00, Flow =     9206

               PRECIP     STAGE  RIV-FLOW  WTR-TEMP   DIS-OXY   CONDUCT  BAT-LOAD
                   in        ft       cfs         F      mg/l   umho/cm      volt
              Ccp-Rev   Ccp-Rev   Ccp-Rev   Ccp-Rev   Ccp-Rev   Ccp-Rev   Ccp-Rev
(US/Central)
05/22 00:00      0.00     20.06      6475     63.73      0.00       250     12.60
05/22 01:00      0.00     20.20      6565     63.57      0.00       264     12.60
05/22 02:00      0.00     20.47      6740     63.37      0.00       273     12.60
05/22 03:00      0.00     20.85      6990     63.12      0.00       276     12.54
05/22 04:00      0.00     21.65      7528     63.03      0.00       312     12.54
05/22 05:00      0.00     22.30      7978     63.21      0.00       374     12.54
05/22 06:00      0.00     22.78      8317     62.98      0.00       364     12.48
05/22 07:00      0.00     23.31      8698     62.85      0.00       366     12.48
05/22 08:00      0.00     23.78      9043     62.69      0.00       364     12.60
05/22 09:00      0.00     24.15      9321     62.62      0.00       366     12.95
05/22 10:00      0.00     24.48      9576     62.69      0.00       359     13.53
05/22 11:00      0.00     24.70      9748     62.83      0.00       356     13.71
05/22 12:00      0.00     24.83      9850     63.14      0.00       353     13.94
05/22 13:00      0.00     24.91      9916     63.48      0.00       378     13.77
05/22 14:00      0.00     25.09     10074     63.99      0.00       387     13.83
05/22 15:00      0.00     25.22     10190     64.38      0.00       396     13.71
05/22 16:00      0.00     25.32     10279     65.03      0.00       435     13.36
05/22 17:00      0.00     25.35     10305     65.48      0.00       431     13.30
05/22 18:00      0.00     25.28     10243     65.89      0.00       417     13.30
05/22 19:00      0.00     25.19     10163     66.27      0.00       412     13.30
05/22 20:00      0.00     25.11     10092     66.54      0.00       439     13.18
05/22 21:00      0.00     25.02     10013     66.67      0.00       418     13.00
05/22 22:00      0.00     24.91      9916     66.88      0.00       437     12.77
05/22 23:00      0.00     24.84      9858     66.97      0.00       452     12.65